createdAt,value
2022-09-11T00:01:16.502Z,8.07
2022-09-11T00:03:44.865Z,8.52
2022-09-11T00:06:29.195Z,8.05
2022-09-11T00:09:00.311Z,7.80
2022-09-11T00:11:29.059Z,8.57
2022-09-11T00:13:57.121Z,7.60
2022-09-11T00:16:27.123Z,7.75
2022-09-11T00:18:55.664Z,7.47
2022-09-11T00:21:23.254Z,8.57
2022-09-11T00:23:50.906Z,8.40
2022-09-11T00:26:18.893Z,7.93
2022-09-11T00:28:46.938Z,8.02
2022-09-11T00:31:16.353Z,7.82
2022-09-11T00:33:44.700Z,7.75
2022-09-11T00:36:16.126Z,7.93
2022-09-11T00:38:43.763Z,8.40
2022-09-11T00:41:14.243Z,8.02
2022-09-11T00:43:52.888Z,7.32
2022-09-11T00:46:21.012Z,8.05
2022-09-11T00:48:50.098Z,7.68
2022-09-11T00:51:23.337Z,7.55
2022-09-11T00:53:52.029Z,7.50
2022-09-11T00:56:20.179Z,8.00
2022-09-11T00:58:49.453Z,7.70
2022-09-11T01:01:17.035Z,7.82
2022-09-11T01:03:44.766Z,8.07
2022-09-11T01:06:12.473Z,7.75
2022-09-11T01:08:40.278Z,8.00
2022-09-11T01:11:14.125Z,8.20
2022-09-11T01:13:47.131Z,8.00
2022-09-11T01:16:28.424Z,7.90
2022-09-11T01:19:08.716Z,8.15
2022-09-11T01:21:39.230Z,7.80
2022-09-11T01:24:13.130Z,8.07
2022-09-11T01:26:48.140Z,8.02
2022-09-11T01:29:16.113Z,7.80
2022-09-11T01:32:00.229Z,7.68
2022-09-11T01:34:36.139Z,7.80
2022-09-11T01:37:10.610Z,8.55
2022-09-11T01:39:45.255Z,7.32
2022-09-11T01:42:14.897Z,7.63
2022-09-11T01:44:50.007Z,7.68
2022-09-11T01:47:19.245Z,7.82
2022-09-11T01:49:49.936Z,7.80
2022-09-11T01:52:20.028Z,7.75
2022-09-11T01:54:51.505Z,7.65
2022-09-11T01:57:22.857Z,7.60
2022-09-11T01:59:55.640Z,8.10
2022-09-11T02:02:27.295Z,8.23
2022-09-11T02:05:04.765Z,7.90
2022-09-11T02:07:35.878Z,7.72
2022-09-11T02:10:07.752Z,8.05
2022-09-11T02:12:40.945Z,7.75
2022-09-11T02:15:09.477Z,7.40
2022-09-11T02:17:42.878Z,7.75
2022-09-11T02:20:10.999Z,7.80
2022-09-11T02:22:38.891Z,8.35
2022-09-11T02:25:07.030Z,7.97
2022-09-11T02:27:35.634Z,8.55
2022-09-11T02:30:03.564Z,8.48
2022-09-11T02:32:33.656Z,8.77
2022-09-11T02:35:01.639Z,7.90
2022-09-11T02:37:52.511Z,7.63
2022-09-11T02:40:39.522Z,7.88
2022-09-11T02:43:10.163Z,8.13
2022-09-11T02:45:54.395Z,8.38
2022-09-11T02:48:22.543Z,8.23
2022-09-11T02:50:54.232Z,8.93
2022-09-11T02:53:33.918Z,7.85
2022-09-11T02:56:01.453Z,7.95
2022-09-11T02:58:38.403Z,8.43
2022-09-11T03:01:08.671Z,8.20
2022-09-11T03:03:45.973Z,7.88
2022-09-11T03:06:24.280Z,7.75
2022-09-11T03:08:52.392Z,7.65
2022-09-11T03:11:20.156Z,8.57
2022-09-11T03:13:50.571Z,8.32
2022-09-11T03:16:18.285Z,7.75
2022-09-11T03:18:45.848Z,7.80
2022-09-11T03:21:16.825Z,7.47
2022-09-11T03:23:44.786Z,7.35
2022-09-11T03:26:12.417Z,7.95
2022-09-11T03:28:40.114Z,7.60
2022-09-11T03:31:09.502Z,7.07
2022-09-11T03:33:37.683Z,7.43
2022-09-11T03:36:05.444Z,6.82
2022-09-11T03:38:33.131Z,7.82
2022-09-11T03:41:03.369Z,7.50
2022-09-11T03:43:33.202Z,7.57
2022-09-11T03:46:01.171Z,7.60
2022-09-11T03:48:29.280Z,8.05
2022-09-11T03:50:57.593Z,7.70
2022-09-11T03:53:25.823Z,7.72
2022-09-11T03:55:54.796Z,8.52
2022-09-11T03:58:22.736Z,8.30
2022-09-11T04:00:50.557Z,7.80
2022-09-11T04:03:18.139Z,8.25
2022-09-11T04:05:56.975Z,8.52
2022-09-11T04:08:24.651Z,8.82
2022-09-11T04:10:59.803Z,8.43
2022-09-11T04:13:34.565Z,7.97
2022-09-11T04:16:05.054Z,8.05
2022-09-11T04:18:36.639Z,7.68
2022-09-11T04:21:08.500Z,7.57
2022-09-11T04:23:36.414Z,7.97
2022-09-11T04:26:05.035Z,7.93
2022-09-11T04:28:32.790Z,7.95
2022-09-11T04:31:04.558Z,7.78
2022-09-11T04:33:33.664Z,8.30
2022-09-11T04:36:05.403Z,7.90
2022-09-11T04:38:33.865Z,9.20
2022-09-11T04:41:02.476Z,8.50
2022-09-11T04:43:33.333Z,7.70
2022-09-11T04:46:03.694Z,8.43
2022-09-11T04:48:31.938Z,8.55
2022-09-11T04:51:04.241Z,8.60
2022-09-11T04:53:32.204Z,9.15
2022-09-11T04:56:03.589Z,8.73
2022-09-11T04:58:37.635Z,7.97
2022-09-11T05:01:09.286Z,8.45
2022-09-11T05:03:37.906Z,8.65
2022-09-11T05:06:09.937Z,8.40
2022-09-11T05:08:37.736Z,7.85
2022-09-11T05:11:06.896Z,9.68
2022-09-11T05:13:36.727Z,9.02
2022-09-11T05:16:05.678Z,9.18
2022-09-11T05:18:34.866Z,9.07
2022-09-11T05:21:04.736Z,9.00
2022-09-11T05:23:33.017Z,9.40
2022-09-11T05:26:02.525Z,9.40
2022-09-11T05:28:31.646Z,11.00
2022-09-11T05:31:02.544Z,10.88
2022-09-11T05:33:30.497Z,12.77
2022-09-11T05:36:03.923Z,10.98
2022-09-11T05:38:31.789Z,9.98
2022-09-11T05:40:59.343Z,10.82
2022-09-11T05:43:27.076Z,10.40
2022-09-11T05:45:56.314Z,10.88
2022-09-11T05:48:25.569Z,10.18
2022-09-11T05:50:54.543Z,10.63
2022-09-11T05:53:22.880Z,10.90
2022-09-11T05:55:51.837Z,11.85
2022-09-11T05:58:20.028Z,12.27
2022-09-11T06:00:48.278Z,12.10
2022-09-11T06:03:17.590Z,11.90
2022-09-11T06:05:45.307Z,14.02
2022-09-11T06:08:13.108Z,18.38
2022-09-11T06:10:46.767Z,21.38
2022-09-11T06:13:18.462Z,23.83
2022-09-11T06:15:49.297Z,22.80
2022-09-11T06:18:17.129Z,21.25
2022-09-11T06:20:55.337Z,20.90
2022-09-11T06:23:23.143Z,20.00
2022-09-11T06:25:54.100Z,19.10
2022-09-11T06:28:23.178Z,15.80
2022-09-11T06:30:54.325Z,15.73
2022-09-11T06:33:22.181Z,14.95
2022-09-11T06:36:04.347Z,14.95
2022-09-11T06:38:32.575Z,13.27
2022-09-11T06:41:04.512Z,12.38
2022-09-11T06:43:35.915Z,12.68
2022-09-11T06:46:06.689Z,12.38
2022-09-11T06:48:34.479Z,12.65
2022-09-11T06:51:06.467Z,13.02
2022-09-11T06:53:34.592Z,14.40
2022-09-11T06:56:08.075Z,13.63
2022-09-11T06:58:35.680Z,13.13
2022-09-11T07:01:04.978Z,13.88
2022-09-11T07:03:34.165Z,16.30
2022-09-11T07:06:04.109Z,14.75
2022-09-11T07:08:31.602Z,26.00
2022-09-11T07:11:06.444Z,34.55
2022-09-11T07:13:37.411Z,18.50
2022-09-11T07:16:10.358Z,11.13
2022-09-11T07:18:40.803Z,10.70
2022-09-11T07:21:13.256Z,8.95
2022-09-11T07:23:43.440Z,15.38
2022-09-11T07:26:12.765Z,8.38
2022-09-11T07:28:41.084Z,6.90
2022-09-11T07:31:16.375Z,5.88
2022-09-11T07:33:48.959Z,5.28
2022-09-11T07:36:18.890Z,3.95
2022-09-11T07:38:50.501Z,4.40
2022-09-11T07:41:19.392Z,4.43
2022-09-11T07:43:52.599Z,5.35
2022-09-11T07:46:20.348Z,5.55
2022-09-11T07:48:47.930Z,4.97
2022-09-11T07:51:16.548Z,5.03
2022-09-11T07:53:48.622Z,4.70
2022-09-11T07:56:21.407Z,5.13
2022-09-11T07:58:50.152Z,4.70
2022-09-11T08:01:19.832Z,4.28
2022-09-11T08:03:49.593Z,3.97
2022-09-11T08:06:22.180Z,3.40
2022-09-11T08:08:55.522Z,4.45
2022-09-11T08:11:24.584Z,4.10
2022-09-11T08:13:53.756Z,4.78
2022-09-11T08:16:24.843Z,4.05
2022-09-11T08:18:55.267Z,3.63
2022-09-11T08:21:24.437Z,3.70
2022-09-11T08:23:52.145Z,3.95
2022-09-11T08:26:24.263Z,3.30
2022-09-11T08:28:54.875Z,2.72
2022-09-11T08:31:27.666Z,2.72
2022-09-11T08:33:57.830Z,2.85
2022-09-11T08:36:25.559Z,3.25
2022-09-11T08:38:53.832Z,3.45
2022-09-11T08:41:24.110Z,3.30
2022-09-11T08:43:54.374Z,3.47
2022-09-11T08:46:24.209Z,3.13
2022-09-11T08:48:57.955Z,3.20
2022-09-11T08:51:28.207Z,3.28
2022-09-11T08:53:57.005Z,3.38
2022-09-11T08:56:29.424Z,3.00
2022-09-11T08:59:15.566Z,3.33
2022-09-11T09:02:01.766Z,3.58
2022-09-11T09:04:32.427Z,2.90
2022-09-11T09:07:02.655Z,2.80
2022-09-11T09:09:42.325Z,2.90
2022-09-11T09:12:10.286Z,3.20
2022-09-11T09:15:00.460Z,2.65
2022-09-11T09:17:32.127Z,2.63
2022-09-11T09:20:06.067Z,3.17
2022-09-11T09:22:55.414Z,2.80
2022-09-11T09:25:25.417Z,2.30
2022-09-11T09:28:17.086Z,2.42
2022-09-11T09:30:58.044Z,2.53
2022-09-11T09:33:29.186Z,2.63
2022-09-11T09:35:57.925Z,2.50
2022-09-11T09:38:31.436Z,2.60
2022-09-11T09:41:02.011Z,2.63
2022-09-11T09:43:54.166Z,2.40
2022-09-11T09:46:37.293Z,2.30
2022-09-11T09:49:04.820Z,2.30
2022-09-11T09:51:31.962Z,2.33
2022-09-11T09:54:01.869Z,2.20
2022-09-11T09:56:31.860Z,2.28
2022-09-11T09:59:19.931Z,3.00
2022-09-11T10:01:51.898Z,2.17
2022-09-11T10:04:27.198Z,2.30
2022-09-11T10:07:10.816Z,1.95
2022-09-11T10:09:46.857Z,2.10
2022-09-11T10:12:25.723Z,2.10
2022-09-11T10:14:57.683Z,2.42
2022-09-11T10:18:56.915Z,1.95
2022-09-11T10:21:37.416Z,2.30
2022-09-11T10:24:10.698Z,2.30
2022-09-11T10:26:39.436Z,2.58
2022-09-11T10:29:27.486Z,2.15
2022-09-11T10:32:02.463Z,2.10
2022-09-11T10:34:36.741Z,2.38
2022-09-11T10:37:20.255Z,2.30
2022-09-11T10:39:48.589Z,2.15
2022-09-11T10:42:17.665Z,1.98
2022-09-11T10:44:46.877Z,2.20
2022-09-11T10:47:18.899Z,2.30
2022-09-11T10:49:47.145Z,1.92
2022-09-11T10:52:14.211Z,1.77
2022-09-11T10:55:07.667Z,1.80
2022-09-11T10:57:38.953Z,2.10
2022-09-11T11:00:22.439Z,2.22
2022-09-11T11:02:56.147Z,2.38
2022-09-11T11:05:27.930Z,1.90
2022-09-11T11:08:12.173Z,2.17
2022-09-11T11:10:51.320Z,1.83
2022-09-11T11:13:24.692Z,1.88
2022-09-11T11:16:39.676Z,1.90
2022-09-11T11:19:09.466Z,1.92
2022-09-11T11:21:42.473Z,1.90
2022-09-11T11:24:34.086Z,2.40
2022-09-11T11:27:37.287Z,1.80
2022-09-11T11:30:19.453Z,1.77
2022-09-11T11:32:51.965Z,1.80
2022-09-11T11:35:36.834Z,2.17
2022-09-11T11:40:43.971Z,1.60
2022-09-11T11:43:13.889Z,1.60
2022-09-11T11:46:15.612Z,1.70
2022-09-11T11:48:51.044Z,2.03
2022-09-11T11:51:20.039Z,1.60
2022-09-11T11:54:06.696Z,2.10
2022-09-11T11:56:51.921Z,1.70
2022-09-11T11:59:44.260Z,1.73
2022-09-11T12:02:11.702Z,1.80
2022-09-11T12:05:15.927Z,1.70
2022-09-11T12:07:43.147Z,1.58
2022-09-11T12:10:29.109Z,1.50
2022-09-11T12:13:01.111Z,2.03
2022-09-11T12:15:34.349Z,1.60
2022-09-11T12:18:19.981Z,2.05
2022-09-11T12:20:47.192Z,1.50
2022-09-11T12:23:32.712Z,1.63
2022-09-11T12:26:23.886Z,1.70
2022-09-11T12:29:14.369Z,1.90
2022-09-11T12:31:50.589Z,1.63
2022-09-11T12:34:27.316Z,1.65
2022-09-11T12:37:03.504Z,1.50
2022-09-11T12:39:36.000Z,1.50
2022-09-11T12:42:25.553Z,1.85
2022-09-11T12:44:52.609Z,1.60
2022-09-11T12:47:27.577Z,1.55
2022-09-11T12:50:04.667Z,1.60
2022-09-11T12:52:40.462Z,1.50
2022-09-11T12:55:33.269Z,1.33
2022-09-11T12:58:21.391Z,1.50
2022-09-11T13:01:08.864Z,1.73
2022-09-11T13:03:38.418Z,1.40
2022-09-11T13:06:09.551Z,1.75
2022-09-11T13:08:47.474Z,1.30
2022-09-11T13:11:37.644Z,1.52
2022-09-11T13:14:29.387Z,1.42
2022-09-11T13:17:00.303Z,1.70
2022-09-11T13:19:37.679Z,1.40
2022-09-11T13:22:28.661Z,1.60
2022-09-11T13:25:16.685Z,1.40
2022-09-11T13:27:55.338Z,1.48
2022-09-11T13:30:24.487Z,1.45
2022-09-11T13:33:01.215Z,1.83
2022-09-11T13:35:29.987Z,1.40
2022-09-11T13:38:11.926Z,1.33
2022-09-11T13:40:49.775Z,1.60
2022-09-11T13:43:21.852Z,1.88
2022-09-11T13:45:49.196Z,1.90
2022-09-11T13:48:22.907Z,1.58
2022-09-11T13:50:51.501Z,1.50
2022-09-11T13:53:20.090Z,1.60
2022-09-11T13:55:49.456Z,1.50
2022-09-11T13:58:25.133Z,1.60
2022-09-11T14:00:54.955Z,1.50
2022-09-11T14:03:27.986Z,1.60
2022-09-11T14:06:15.939Z,1.50
2022-09-11T14:08:49.956Z,1.80
2022-09-11T14:11:31.956Z,1.50
2022-09-11T14:14:09.119Z,1.50
2022-09-11T14:16:44.616Z,2.00
2022-09-11T14:19:19.566Z,1.75
2022-09-11T14:21:49.124Z,1.80
2022-09-11T14:24:32.798Z,1.80
2022-09-11T14:27:02.017Z,1.55
2022-09-11T14:29:31.676Z,1.58
2022-09-11T14:32:33.252Z,1.80
2022-09-11T14:35:06.783Z,1.58
2022-09-11T14:37:44.112Z,1.30
2022-09-11T14:40:16.648Z,1.20
2022-09-11T14:42:45.350Z,1.20
2022-09-11T14:45:24.403Z,1.10
2022-09-11T14:47:52.321Z,0.90
2022-09-11T14:50:20.016Z,1.00
2022-09-11T14:52:47.166Z,1.30
2022-09-11T14:55:16.553Z,1.30
2022-09-11T14:57:46.674Z,1.00
2022-09-11T15:00:15.226Z,1.15
2022-09-11T15:02:42.507Z,1.08
2022-09-11T15:05:15.925Z,1.17
2022-09-11T15:07:45.584Z,1.33
2022-09-11T15:10:13.904Z,1.60
2022-09-11T15:12:42.560Z,2.03
2022-09-11T15:15:11.274Z,1.33
2022-09-11T15:17:38.775Z,1.35
2022-09-11T15:20:09.238Z,1.88
2022-09-11T15:22:38.401Z,1.95
2022-09-11T15:25:06.297Z,1.40
2022-09-11T15:27:33.994Z,1.65
2022-09-11T15:30:01.394Z,1.27
2022-09-11T15:32:28.935Z,2.33
2022-09-11T15:34:56.137Z,1.85
2022-09-11T15:37:24.379Z,1.70
2022-09-11T15:39:51.728Z,1.73
2022-09-11T15:42:19.174Z,2.45
2022-09-11T15:44:46.593Z,1.83
2022-09-11T15:47:13.827Z,1.90
2022-09-11T15:49:44.524Z,1.90
2022-09-11T15:52:12.183Z,1.85
2022-09-11T15:54:39.509Z,1.70
2022-09-11T15:57:07.530Z,1.48
2022-09-11T15:59:34.727Z,1.70
2022-09-11T16:02:01.990Z,1.90
2022-09-11T16:04:32.362Z,2.08
2022-09-11T16:06:59.869Z,2.75
2022-09-11T16:09:29.907Z,2.38
2022-09-11T16:11:59.364Z,3.22
2022-09-11T16:14:38.463Z,2.83
2022-09-11T16:17:07.222Z,3.70
2022-09-11T16:19:35.350Z,3.80
2022-09-11T16:22:04.174Z,4.10
2022-09-11T16:24:35.580Z,4.40
2022-09-11T16:27:05.483Z,3.65
2022-09-11T16:29:59.023Z,3.58
2022-09-11T16:32:28.483Z,3.75
2022-09-11T16:34:57.265Z,4.65
2022-09-11T16:37:25.889Z,4.20
2022-09-11T16:39:53.113Z,4.10
2022-09-11T16:42:21.713Z,3.33
2022-09-11T16:44:50.116Z,3.45
2022-09-11T16:47:18.139Z,2.72
2022-09-11T16:50:05.832Z,2.30
2022-09-11T16:52:34.717Z,3.45
2022-09-11T16:55:02.427Z,2.80
2022-09-11T16:57:30.334Z,2.65
2022-09-11T16:59:57.859Z,2.70
2022-09-11T17:02:25.131Z,2.72
2022-09-11T17:04:52.794Z,2.63
2022-09-11T17:07:20.813Z,2.15
2022-09-11T17:09:48.489Z,2.30
2022-09-11T17:12:17.870Z,2.58
2022-09-11T17:14:45.348Z,2.05
2022-09-11T17:17:12.461Z,2.60
2022-09-11T17:19:39.686Z,2.00
2022-09-11T17:22:08.541Z,2.30
2022-09-11T17:24:35.891Z,2.55
2022-09-11T17:27:03.006Z,3.20
2022-09-11T17:29:30.257Z,3.08
2022-09-11T17:32:16.701Z,3.05
2022-09-11T17:34:44.203Z,3.55
2022-09-11T17:37:11.250Z,3.72
2022-09-11T17:39:38.565Z,4.50
2022-09-11T17:42:11.089Z,4.03
2022-09-11T17:44:41.490Z,4.53
2022-09-11T17:47:09.003Z,5.25
2022-09-11T17:49:36.090Z,5.30
2022-09-11T17:52:03.343Z,5.85
2022-09-11T17:54:30.524Z,6.35
2022-09-11T17:56:58.580Z,7.13
2022-09-11T17:59:25.771Z,7.05
2022-09-11T18:01:53.374Z,7.25
2022-09-11T18:04:21.552Z,6.97
2022-09-11T18:06:48.672Z,8.05
2022-09-11T18:09:17.928Z,8.27
2022-09-11T18:11:47.462Z,9.00
2022-09-11T18:14:16.398Z,8.57
2022-09-11T18:16:45.256Z,8.38
2022-09-11T18:19:55.204Z,9.80
2022-09-11T18:22:35.791Z,7.28
2022-09-11T18:25:02.991Z,6.10
2022-09-11T18:27:30.092Z,6.03
2022-09-11T18:29:57.206Z,5.47
2022-09-11T18:32:24.415Z,5.50
2022-09-11T18:34:51.540Z,5.38
2022-09-11T18:37:18.584Z,5.07
2022-09-11T18:39:46.967Z,5.47
2022-09-11T18:42:14.090Z,5.00
2022-09-11T18:44:41.429Z,5.45
2022-09-11T18:47:08.733Z,5.78
2022-09-11T18:49:35.864Z,6.03
2022-09-11T18:52:03.330Z,6.20
2022-09-11T18:54:31.668Z,6.72
2022-09-11T18:57:00.217Z,7.00
2022-09-11T18:59:27.761Z,6.38
2022-09-11T19:01:55.290Z,6.65
2022-09-11T19:04:23.358Z,6.80
2022-09-11T19:06:50.608Z,6.22
2022-09-11T19:09:21.084Z,5.85
2022-09-11T19:11:48.442Z,6.00
2022-09-11T19:14:15.512Z,6.07
2022-09-11T19:16:42.903Z,6.10
2022-09-11T19:19:10.747Z,7.82
2022-09-11T19:21:38.455Z,6.95
2022-09-11T19:24:06.947Z,6.85
2022-09-11T19:26:38.303Z,6.82
2022-09-11T19:29:08.841Z,6.78
2022-09-11T19:31:36.846Z,7.68
2022-09-11T19:34:04.056Z,8.18
2022-09-11T19:36:36.047Z,8.40
2022-09-11T19:39:05.336Z,8.00
2022-09-11T19:41:35.454Z,7.97
2022-09-11T19:44:03.700Z,7.45
2022-09-11T19:46:33.302Z,7.93
2022-09-11T19:49:03.171Z,7.85
2022-09-11T19:51:35.187Z,6.93
2022-09-11T19:54:02.944Z,5.72
2022-09-11T19:56:31.566Z,6.43
2022-09-11T19:59:00.266Z,6.70
2022-09-11T20:01:29.859Z,5.75
2022-09-11T20:04:00.394Z,5.55
2022-09-11T20:06:33.350Z,5.85
2022-09-11T20:09:29.431Z,5.93
2022-09-11T20:11:49.642Z,4.95
2022-09-11T20:14:17.109Z,4.93
2022-09-11T20:16:44.240Z,4.60
2022-09-11T20:19:11.621Z,5.03
2022-09-11T20:21:39.074Z,5.28
2022-09-11T20:24:07.357Z,4.95
2022-09-11T20:26:35.080Z,5.65
2022-09-11T20:29:16.367Z,5.65
2022-09-11T20:31:48.857Z,5.25
2022-09-11T20:34:17.495Z,5.70
2022-09-11T20:36:44.978Z,5.78
2022-09-11T20:39:13.750Z,6.43
2022-09-11T20:41:41.176Z,7.10
2022-09-11T20:44:08.472Z,7.68
2022-09-11T20:46:35.470Z,7.95
2022-09-11T20:49:03.161Z,8.48
2022-09-11T20:51:30.968Z,10.02
2022-09-11T20:53:57.976Z,9.73
2022-09-11T20:56:25.006Z,9.02
2022-09-11T20:58:52.719Z,9.43
2022-09-11T21:01:22.632Z,9.88
2022-09-11T21:03:52.341Z,8.38
2022-09-11T21:06:25.369Z,7.78
2022-09-11T21:08:57.399Z,6.40
2022-09-11T21:11:25.277Z,5.90
2022-09-11T21:13:52.246Z,5.03
2022-09-11T21:16:20.137Z,4.63
2022-09-11T21:18:51.767Z,4.60
2022-09-11T21:21:20.324Z,3.90
2022-09-11T21:23:47.542Z,4.10
2022-09-11T21:26:16.713Z,3.90
2022-09-11T21:28:44.293Z,3.55
2022-09-11T21:31:12.018Z,3.45
2022-09-11T21:33:39.308Z,3.22
2022-09-11T21:36:07.103Z,3.30
2022-09-11T21:38:34.476Z,3.47
2022-09-11T21:41:05.556Z,3.53
2022-09-11T21:43:32.486Z,3.20
2022-09-11T21:45:59.351Z,3.67
2022-09-11T21:48:26.300Z,3.30
2022-09-11T21:50:53.475Z,3.90
2022-09-11T21:53:20.708Z,3.80
2022-09-11T21:55:50.956Z,3.78
2022-09-11T21:58:20.790Z,3.85
2022-09-11T22:00:48.861Z,3.70
2022-09-11T22:03:18.433Z,3.80
2022-09-11T22:05:49.189Z,3.70
2022-09-11T22:08:18.448Z,4.00
2022-09-11T22:10:50.579Z,3.80
2022-09-11T22:13:19.062Z,4.22
2022-09-11T22:15:50.335Z,3.88
2022-09-11T22:18:18.224Z,4.10
2022-09-11T22:20:45.609Z,3.95
2022-09-11T22:23:18.185Z,4.03
2022-09-11T22:25:45.699Z,4.10
2022-09-11T22:28:13.031Z,4.38
2022-09-11T22:30:43.918Z,4.93
2022-09-11T22:33:11.208Z,4.10
2022-09-11T22:35:38.117Z,4.43
2022-09-11T22:38:04.994Z,4.20
2022-09-11T22:40:31.853Z,4.50
2022-09-11T22:42:58.865Z,4.20
2022-09-11T22:45:25.867Z,4.40
2022-09-11T22:47:52.796Z,4.88
2022-09-11T22:50:19.677Z,4.72
2022-09-11T22:52:46.555Z,4.60
2022-09-11T22:55:13.557Z,4.88
2022-09-11T22:57:40.421Z,5.68
2022-09-11T23:00:10.047Z,5.35
2022-09-11T23:02:37.696Z,6.07
2022-09-11T23:05:25.413Z,6.30
2022-09-11T23:07:53.717Z,6.47
2022-09-11T23:10:23.650Z,5.95
2022-09-11T23:12:54.708Z,7.30
2022-09-11T23:15:22.198Z,6.85
2022-09-11T23:17:49.091Z,7.88
2022-09-11T23:20:16.253Z,7.65
2022-09-11T23:22:43.068Z,7.85
2022-09-11T23:25:11.172Z,8.85
2022-09-11T23:27:38.272Z,9.55
2022-09-11T23:30:05.567Z,9.68
2022-09-11T23:32:32.404Z,9.75
2022-09-11T23:34:59.291Z,10.68
2022-09-11T23:37:26.084Z,10.35
2022-09-11T23:39:53.009Z,10.27
2022-09-11T23:42:20.326Z,10.65
2022-09-11T23:44:47.159Z,10.85
2022-09-11T23:47:14.018Z,10.68
2022-09-11T23:49:41.138Z,11.38
2022-09-11T23:52:07.930Z,10.98
2022-09-11T23:54:34.837Z,10.30
2022-09-11T23:57:01.791Z,10.95
2022-09-11T23:59:28.582Z,10.98
